Decoded Metar for SBPS (PORTO SEGURO in BRAZIL) (IATA:N/A) | Meteo·Mobile Aviation Weather
aviador You're here:

SBPS Decoded Metar

PORTO SEGURO in BRAZIL
Report Time2018-11-18 07:00:00
UTC Time2018-11-18 07:40:09
Flight Rules vfr VFR
Wind080° at 08 kt
W.Decomp.*RWY 10: 8.0 kt HW 0.4 kt RCW
W.Rank080° ranks 1
Current wind is below 080° avg. (10.1)
Visibility9999 m
Phenomena:N/A
Clouds:Few 013 Hf
Scattered 050 Hf
Expected CloudBase > 800 ft AGL from Temp-Dew spread
CeilingNone
Temp25°C (ISA +10)
Dew Point23°C (89% RH)
QNH1016 hPa
Density Alt1,631 ft
Elevation167 ft
Report Wrong Elevation
Raw Report
METAR SBPS 180700Z 08008KT 9999 FEW013 SCT050 25/23 Q1016=

Extra information for SBPS:More info

Metar Taf Metar & Taf Last 4 Metars F.Rules Stats Wind Profile Meteogram Temp Stats Airport Information Weather charts Add Link Nearby VenuesMetar ALERT Operation Metar Decoded Social comments